Falfurrias, Texas
Current Conditions -  °F | °C
As of 5:15 PM on Friday 19 Dec 2014 (Local Time) from KBKS Reporting Station
Overcast Overcast  
Wind Chill: 63°   Ceiling: 1900
Heat Index: 63°   Visibility: 10mi
Dew Point: 55°   Wind: 10mph
Humidity: 77%   Direction: 10°N
Pressure: 30.03"   Gusts: NA
Location:  27.23°N, 98.14°W
Report Text: KBKS 192315Z AUTO 01009KT 10SM OVC019 17/13 A3003 RMK AO1 T01700130
Loading
Personal Weather Stations






























Interactive Weather Map New forecast layout! Learn more

10-Day Weather Forecast

Advertisements
Track Severe Weather on mobile